Time;durP1;ratioP1;P1;durP2;ratioP2;P2;SDS_P1;SDS_P2;PMS_P1;PMS_P2;Temp;Humidity;BMP_temperature;BMP_pressure;BME280_temperature;BME280_humidity;BME280_pressure;Samples;Min_cycle;Max_cycle;Signal;HPM_P1;HPM_P2
2024/04/13 00:02:00;;;;;;;;;;;15.10;99.90;;;;;;9039356;26;19952;-72
2024/04/13 00:06:02;;;;;;;;;;;15.10;99.90;;;;;;9026318;26;20356;-72
2024/04/13 00:10:04;;;;;;;;;;;15.10;99.90;;;;;;9031709;26;19991;-72
2024/04/13 00:14:06;;;;;;;;;;;15.00;99.90;;;;;;9044010;26;19924;-72
2024/04/13 00:18:07;;;;;;;;;;;15.00;99.90;;;;;;9068991;26;19935;-72
2024/04/13 00:22:11;;;;;;;;;;;15.00;99.90;;;;;;9039946;26;20252;-72
2024/04/13 00:26:13;;;;;;;;;;;14.90;99.90;;;;;;9028749;26;19928;-72
2024/04/13 00:30:15;;;;;;;;;;;14.90;99.90;;;;;;9053629;26;19930;-72
2024/04/13 00:34:17;;;;;;;;;;;14.90;99.90;;;;;;9045617;26;19932;-72
2024/04/13 00:38:19;;;;;;;;;;;14.90;99.90;;;;;;9034798;26;19952;-72
2024/04/13 00:42:21;;;;;;;;;;;14.90;99.90;;;;;;9068940;26;20325;-72
2024/04/13 00:46:26;;;;;;;;;;;14.80;99.90;;;;;;9020678;26;19993;-72
2024/04/13 00:50:30;;;;;;;;;;;14.80;99.90;;;;;;9028624;26;19953;-72
2024/04/13 00:54:34;;;;;;;;;;;14.80;99.90;;;;;;9028633;26;19932;-72
2024/04/13 00:58:36;;;;;;;;;;;14.70;99.90;;;;;;9034862;26;19924;-72
2024/04/13 01:02:42;;;;;;;;;;;14.70;99.90;;;;;;9027126;26;20298;-73
2024/04/13 01:06:44;;;;;;;;;;;14.70;99.90;;;;;;9058168;26;20744;-72
2024/04/13 01:10:46;;;;;;;;;;;14.70;99.90;;;;;;9031485;26;19932;-72
2024/04/13 01:14:48;;;;;;;;;;;14.60;99.90;;;;;;9045432;26;19956;-72
2024/04/13 01:18:52;;;;;;;;;;;14.60;99.90;;;;;;9032110;26;19931;-72
2024/04/13 01:22:55;;;;;;;;;;;14.60;99.90;;;;;;9021461;26;20264;-72
2024/04/13 01:26:57;;;;;;;;;;;14.60;99.90;;;;;;9024129;26;20263;-72
2024/04/13 01:30:59;;;;;;;;;;;14.60;99.90;;;;;;9037523;26;19937;-72
2024/04/13 01:35:09;;;;;;;;;;;14.60;99.90;;;;;;9039027;26;19924;-72
2024/04/13 01:39:12;;;;;;;;;;;14.50;99.90;;;;;;9048054;26;19930;-72
2024/04/13 01:43:14;;;;;;;;;;;14.50;99.90;;;;;;9047094;26;19932;-72
2024/04/13 01:47:17;;;;;;;;;;;14.40;99.90;;;;;;9048086;26;19930;-72
2024/04/13 01:51:18;;;;;;;;;;;14.40;99.90;;;;;;9035776;26;20355;-73
2024/04/13 01:55:21;;;;;;;;;;;14.30;99.90;;;;;;9040565;26;20437;-72
2024/04/13 01:59:23;;;;;;;;;;;14.20;99.90;;;;;;9030040;26;19996;-73
2024/04/13 02:03:25;;;;;;;;;;;14.20;99.90;;;;;;9036734;26;19928;-73
2024/04/13 02:07:29;;;;;;;;;;;14.10;99.90;;;;;;9041474;26;19925;-73
2024/04/13 02:11:31;;;;;;;;;;;14.10;99.90;;;;;;9048781;26;19935;-73
2024/04/13 02:15:33;;;;;;;;;;;14.00;99.90;;;;;;9032496;26;19973;-73
2024/04/13 02:19:50;;;;;;;;;;;14.00;99.90;;;;;;9045885;26;20239;-72
2024/04/13 02:23:52;;;;;;;;;;;14.00;99.90;;;;;;9065275;26;19993;-73
2024/04/13 02:27:54;;;;;;;;;;;14.00;99.90;;;;;;9072391;26;19937;-73
2024/04/13 02:31:56;;;;;;;;;;;14.00;99.90;;;;;;9089835;26;19925;-72
2024/04/13 02:35:59;;;;;;;;;;;13.90;99.90;;;;;;9034087;26;19924;-72
2024/04/13 02:40:06;;;;;;;;;;;13.90;99.90;;;;;;9053069;26;19924;-72
2024/04/13 02:44:09;;;;;;;;;;;13.90;99.90;;;;;;9101108;26;20376;-73
2024/04/13 02:48:11;;;;;;;;;;;13.90;99.90;;;;;;9043200;26;19931;-72
2024/04/13 02:52:13;;;;;;;;;;;13.80;99.90;;;;;;9041927;26;19931;-72
2024/04/13 02:56:15;;;;;;;;;;;13.80;99.90;;;;;;9039118;26;19953;-73
2024/04/13 03:00:17;;;;;;;;;;;13.70;99.90;;;;;;9038512;26;19925;-72
2024/04/13 03:04:18;;;;;;;;;;;13.60;99.90;;;;;;9034454;26;19967;-72
2024/04/13 03:08:20;;;;;;;;;;;13.60;99.90;;;;;;9090590;25;19924;-73
2024/04/13 03:12:22;;;;;;;;;;;13.50;99.90;;;;;;9041182;26;20275;-73
2024/04/13 03:16:24;;;;;;;;;;;13.50;99.90;;;;;;9035138;26;19934;-73
2024/04/13 03:20:26;;;;;;;;;;;13.50;99.90;;;;;;9029376;26;19964;-72
2024/04/13 03:24:33;;;;;;;;;;;13.50;99.90;;;;;;9032500;26;19988;-72
2024/04/13 03:28:35;;;;;;;;;;;13.50;99.90;;;;;;9035186;26;20209;-72
2024/04/13 03:32:37;;;;;;;;;;;13.40;99.90;;;;;;9034002;26;19968;-73
2024/04/13 03:36:40;;;;;;;3.47;1.73;;;13.30;99.90;;;;;;9033743;26;19925;-72
2024/04/13 03:40:44;;;;;;;3.95;1.70;;;13.30;99.90;;;;;;9065403;26;20014;-73
2024/04/13 03:44:46;;;;;;;5.20;2.78;;;13.20;99.90;;;;;;9074336;26;20346;-72
2024/04/13 03:48:48;;;;;;;3.72;1.75;;;13.10;99.90;;;;;;9031112;26;20035;-73
2024/04/13 03:52:50;;;;;;;4.07;1.85;;;13.10;99.90;;;;;;9043297;26;20002;-73
2024/04/13 03:56:52;;;;;;;4.03;1.92;;;12.90;99.90;;;;;;9021016;26;20368;-72
2024/04/13 04:00:54;;;;;;;3.67;1.92;;;12.80;99.90;;;;;;9026654;26;20022;-73
2024/04/13 04:04:57;;;;;;;4.07;1.92;;;12.80;99.90;;;;;;9031204;26;20002;-73
2024/04/13 04:09:00;;;;;;;5.35;2.00;;;12.70;99.90;;;;;;9060844;26;20014;-72
2024/04/13 04:13:05;;;;;;;5.70;1.92;;;12.80;99.90;;;;;;9063295;26;20422;-73
2024/04/13 04:17:07;;;;;;;3.60;1.52;;;12.80;99.90;;;;;;9042191;26;20012;-73
2024/04/13 04:26:32;;;;;;;4.00;1.92;;;12.80;99.90;;;;;;9052640;26;20006;-73
2024/04/13 04:30:33;;;;;;;3.42;1.75;;;12.70;99.90;;;;;;9023360;26;20010;-72
2024/04/13 04:34:36;;;;;;;4.00;1.90;;;12.70;99.90;;;;;;9037926;26;20011;-72
2024/04/13 04:38:38;;;;;;;4.32;1.85;;;12.60;99.90;;;;;;9042203;26;20078;-73
2024/04/13 04:42:39;;;;;;;3.90;1.80;;;12.60;99.90;;;;;;9051524;26;20047;-72
2024/04/13 04:46:41;;;;;;;3.85;1.90;;;12.60;99.90;;;;;;9033141;26;20004;-72
2024/04/13 04:50:57;;;;;;;4.05;1.70;;;12.60;99.90;;;;;;9059476;26;20101;-73
2024/04/13 04:55:01;;;;;;;3.50;1.77;;;12.60;99.90;;;;;;9069050;26;20006;-72
2024/04/13 04:59:04;;;;;;;5.50;1.88;;;12.60;99.90;;;;;;9075090;26;20021;-72
2024/04/13 05:03:06;;;;;;;4.03;1.70;;;12.60;99.90;;;;;;9025890;26;20003;-72
2024/04/13 05:07:08;;;;;;;4.20;1.67;;;12.50;99.90;;;;;;9047324;26;20007;-72
2024/04/13 05:11:10;;;;;;;3.22;1.40;;;12.50;99.90;;;;;;9022867;26;20021;-73
2024/04/13 05:15:12;;;;;;;6.10;1.65;;;12.40;99.90;;;;;;9056116;26;20537;-72
2024/04/13 05:19:14;;;;;;;3.38;1.60;;;12.40;99.90;;;;;;9052250;26;20510;-72
2024/04/13 05:23:16;;;;;;;3.90;1.50;;;12.30;99.90;;;;;;9026857;26;20326;-73
2024/04/13 05:27:19;;;;;;;4.03;1.80;;;12.40;99.90;;;;;;9067554;26;20018;-73
2024/04/13 05:31:27;;;;;;;3.38;1.60;;;12.40;99.90;;;;;;9049682;26;20010;-72
2024/04/13 05:35:29;;;;;;;5.15;2.00;;;12.50;99.90;;;;;;9038704;26;19999;-73
2024/04/13 05:39:31;;;;;;;4.65;2.00;;;12.60;99.90;;;;;;9044454;26;20002;-72
2024/04/13 05:43:33;;;;;;;4.30;2.03;;;12.60;99.90;;;;;;9073888;26;20006;-72
2024/04/13 05:47:35;;;;;;;4.00;1.98;;;12.70;99.90;;;;;;9051712;26;20017;-73
2024/04/13 05:52:06;;;;;;;3.78;1.88;;;12.80;99.90;;;;;;9040857;26;20006;-73
2024/04/13 05:56:08;;;;;;;4.30;1.92;;;12.90;99.90;;;;;;9051717;26;20008;-73
2024/04/13 06:00:11;;;;;;;4.53;2.08;;;13.00;99.90;;;;;;9050033;26;19939;-73
2024/04/13 06:04:14;;;;;;;5.30;1.83;;;13.10;99.90;;;;;;9048881;26;20420;-72
2024/04/13 06:08:16;;;;;;;4.83;1.87;;;13.10;99.90;;;;;;9040092;26;20025;-72
2024/04/13 06:12:18;;;;;;;4.80;2.10;;;13.20;99.90;;;;;;9039791;26;20486;-72
2024/04/13 06:16:20;;;;;;;4.25;1.90;;;13.30;99.90;;;;;;9034736;26;20003;-72
2024/04/13 06:20:22;;;;;;;4.75;2.25;;;13.40;99.90;;;;;;9024895;26;20319;-73
2024/04/13 06:24:24;;;;;;;4.90;2.22;;;13.50;99.90;;;;;;9029506;26;20007;-72
2024/04/13 06:28:26;;;;;;;4.93;2.50;;;13.70;99.90;;;;;;9018438;26;20019;-73
2024/04/13 06:32:28;;;;;;;4.70;2.38;;;13.80;99.90;;;;;;9017786;26;20021;-72
2024/04/13 06:36:30;;;;;;;4.05;2.20;;;14.00;99.90;;;;;;9048938;26;20076;-73
2024/04/13 06:40:35;;;;;;;8.15;2.50;;;14.00;99.90;;;;;;9040067;26;20365;-73
2024/04/13 06:44:37;;;;;;;5.55;2.38;;;14.10;99.90;;;;;;9059903;26;20015;-73
2024/04/13 06:48:39;;;;;;;4.75;2.60;;;14.20;99.90;;;;;;9033010;26;20466;-72
2024/04/13 06:52:41;;;;;;;5.70;2.80;;;14.30;99.90;;;;;;9023694;26;20021;-73
2024/04/13 06:56:43;;;;;;;6.60;2.75;;;14.30;99.90;;;;;;9024577;26;20013;-72
2024/04/13 07:00:54;;;;;;;5.38;2.60;;;14.40;99.90;;;;;;9018470;26;20017;-73
2024/04/13 07:04:57;;;;;;;7.40;3.28;;;14.60;99.90;;;;;;9025701;26;20010;-72
2024/04/13 07:08:59;;;;;;;6.18;2.80;;;14.70;99.90;;;;;;9028311;26;20026;-72
2024/04/13 07:13:01;;;;;;;5.38;2.70;;;14.80;99.90;;;;;;9036451;26;20058;-72
2024/04/13 07:17:04;;;;;;;5.32;2.97;;;15.00;99.90;;;;;;9038948;26;20438;-73
2024/04/13 07:21:06;;;;;;;5.68;3.10;;;15.10;99.90;;;;;;9029311;26;20040;-73
2024/04/13 07:25:08;;;;;;;6.07;2.92;;;15.20;99.90;;;;;;9034737;26;20282;-71
2024/04/13 07:29:10;;;;;;;6.80;3.40;;;15.30;99.90;;;;;;9052035;26;20005;-72
2024/04/13 07:33:12;;;;;;;7.20;3.55;;;15.50;99.90;;;;;;9029942;26;20450;-73
2024/04/13 07:37:14;;;;;;;5.57;3.47;;;15.60;99.90;;;;;;9041750;26;20006;-72
2024/04/13 07:41:16;;;;;;;7.63;3.58;;;15.80;99.90;;;;;;9040851;26;20002;-73
2024/04/13 07:45:18;;;;;;;8.43;4.10;;;15.90;99.90;;;;;;9083120;26;20345;-72
2024/04/13 07:49:20;;;;;;;6.85;3.42;;;15.90;99.90;;;;;;9086981;26;20111;-72
2024/04/13 07:53:22;;;;;;;6.68;3.80;;;16.00;99.90;;;;;;9076077;25;20002;-72
2024/04/13 07:57:24;;;;;;;5.50;3.40;;;16.00;99.90;;;;;;9099225;25;20041;-73
2024/04/13 08:01:26;;;;;;;8.73;3.40;;;16.20;99.90;;;;;;9066501;26;20029;-73
2024/04/13 08:05:28;;;;;;;7.88;3.78;;;16.40;99.90;;;;;;9070091;25;20010;-73
2024/04/13 08:09:30;;;;;;;6.93;3.70;;;16.50;99.90;;;;;;9080323;26;20417;-72
2024/04/13 08:13:32;;;;;;;6.20;3.20;;;16.60;99.90;;;;;;9070245;26;20016;-73
2024/04/13 08:17:34;;;;;;;9.18;4.15;;;16.70;99.90;;;;;;9090545;26;20034;-73
2024/04/13 08:21:36;;;;;;;6.10;3.30;;;16.90;99.90;;;;;;9073667;26;20152;-73
2024/04/13 08:25:38;;;;;;;6.50;4.10;;;17.10;99.90;;;;;;9076685;26;20066;-72
2024/04/13 08:29:40;;;;;;;6.28;3.17;;;17.30;99.90;;;;;;9077416;25;20372;-72
2024/04/13 08:33:43;;;;;;;5.38;3.00;;;17.30;99.90;;;;;;9093036;26;20013;-72
2024/04/13 08:37:45;;;;;;;8.20;3.92;;;17.40;99.90;;;;;;9084335;25;20010;-73
2024/04/13 08:42:03;;;;;;;5.82;3.33;;;17.40;99.90;;;;;;9093566;26;20002;-73
2024/04/13 08:46:07;;;;;;;7.75;4.03;;;17.50;99.90;;;;;;9073821;26;20017;-72
2024/04/13 08:50:11;;;;;;;6.88;3.90;;;17.50;99.90;;;;;;9095852;25;20002;-73
2024/04/13 08:54:16;;;;;;;6.63;3.40;;;17.50;99.90;;;;;;9074240;26;20373;-72
2024/04/13 09:03:41;;;;;;;7.95;4.32;;;17.70;99.90;;;;;;9065972;26;20363;-72
2024/04/13 09:07:44;;;;;;;7.97;4.30;;;17.80;99.90;;;;;;9080239;25;20002;-72
2024/04/13 09:11:46;;;;;;;7.97;4.50;;;18.00;99.90;;;;;;9064770;26;20006;-72
2024/04/13 09:15:48;;;;;;;6.88;4.45;;;18.20;99.90;;;;;;9077325;26;20010;-72
2024/04/13 09:19:51;;;;;;;8.55;4.95;;;18.30;99.90;;;;;;9080638;26;20013;-72
2024/04/13 09:23:54;;;;;;;8.02;5.15;;;18.30;99.90;;;;;;9082204;26;20466;-72
2024/04/13 09:28:04;;;;;;;8.75;5.38;;;18.40;99.90;;;;;;9081842;26;20016;-73
2024/04/13 09:32:07;;;;;;;7.63;4.50;;;18.40;99.90;;;;;;9074259;26;20006;-72
2024/04/13 09:36:09;;;;;;;9.50;5.25;;;18.60;99.90;;;;;;9071024;26;20001;-72
2024/04/13 09:40:12;;;;;;;8.60;5.22;;;18.70;99.90;;;;;;9085758;26;20002;-73
2024/04/13 09:44:29;;;;;;;10.10;6.38;;;18.90;99.90;;;;;;9067438;26;20097;-72
2024/04/13 09:48:31;;;;;;;9.35;5.43;;;19.10;99.90;;;;;;9073572;26;20020;-73
2024/04/13 09:52:34;;;;;;;10.32;6.15;;;19.30;99.90;;;;;;9090837;26;20073;-73
2024/04/13 09:56:37;;;;;;;10.43;5.95;;;19.30;99.90;;;;;;9082245;25;20035;-73
2024/04/13 10:00:43;;;;;;;9.93;6.22;;;19.40;99.90;;;;;;9078108;26;20007;-72
2024/04/13 10:04:49;;;;;;;11.63;7.00;;;19.40;99.90;;;;;;9068970;26;20005;-73
2024/04/13 10:08:51;;;;;;;13.93;6.95;;;19.50;99.90;;;;;;9066334;25;20062;-73
2024/04/13 10:12:56;;;;;;;9.93;6.10;;;19.60;99.90;;;;;;9063804;26;20003;-72
2024/04/13 10:17:04;;;;;;;9.63;6.47;;;19.80;99.90;;;;;;9094644;25;20017;-73
2024/04/13 10:21:06;;;;;;;10.18;6.80;;;20.00;99.90;;;;;;9083019;26;20012;-73
2024/04/13 10:25:08;;;;;;;14.20;7.40;;;20.20;99.90;;;;;;9061657;26;20080;-73
2024/04/13 10:29:10;;;;;;;11.18;6.93;;;20.30;99.90;;;;;;9072149;26;20082;-73
2024/04/13 10:33:27;;;;;;;10.43;6.85;;;20.40;99.90;;;;;;9054993;26;20524;-73
2024/04/13 10:37:33;;;;;;;10.68;7.15;;;20.50;99.90;;;;;;9064609;25;20014;-72
2024/04/13 10:41:37;;;;;;;10.60;6.63;;;20.60;99.90;;;;;;9071153;26;20114;-73
2024/04/13 10:45:39;;;;;;;11.80;6.38;;;20.70;99.90;;;;;;9071958;26;20010;-72
2024/04/13 10:49:42;;;;;;;10.50;7.50;;;20.80;99.90;;;;;;9082276;26;19998;-73
2024/04/13 10:53:58;;;;;;;9.15;6.82;;;21.00;99.90;;;;;;9050750;25;20350;-73
2024/04/13 10:58:00;;;;;;;9.48;5.63;;;21.10;99.90;;;;;;9067916;26;20384;-73
2024/04/13 11:02:04;;;;;;;10.07;6.10;;;21.40;99.90;;;;;;9086969;25;20002;-73
2024/04/13 11:06:07;;;;;;;7.32;5.55;;;21.70;99.90;;;;;;9092463;25;20072;-73
2024/04/13 11:10:09;;;;;;;8.63;5.43;;;21.90;99.90;;;;;;9087551;26;20421;-72
2024/04/13 11:14:11;;;;;;;8.02;5.78;;;22.00;99.90;;;;;;9090870;26;20003;-72
2024/04/13 11:18:13;;;;;;;8.02;5.38;;;22.10;99.90;;;;;;9087216;25;20005;-73
2024/04/13 11:22:17;;;;;;;9.77;5.05;;;22.10;99.90;;;;;;9095173;25;20481;-73
2024/04/13 11:26:20;;;;;;;8.10;5.10;;;22.20;99.90;;;;;;9087809;25;20006;-73
2024/04/13 11:30:24;;;;;;;7.85;4.78;;;22.40;99.90;;;;;;9092151;26;20445;-73
2024/04/13 11:34:27;;;;;;;7.70;4.97;;;22.60;99.90;;;;;;9096968;26;20006;-73
2024/04/13 11:38:33;;;;;;;8.52;5.07;;;22.70;99.90;;;;;;9099605;25;20011;-73
2024/04/13 11:42:40;;;;;;;7.15;5.03;;;22.80;99.90;;;;;;9073332;26;20017;-72
2024/04/13 11:46:53;;;;;;;7.60;4.63;;;22.60;99.90;;;;;;9098319;26;20016;-72
2024/04/13 11:50:58;;;;;;;7.20;4.63;;;22.60;99.90;;;;;;9098754;25;20049;-74
2024/04/13 11:54:59;;;;;;;6.97;4.85;;;22.80;99.90;;;;;;9099418;25;20002;-73
2024/04/13 11:59:02;;;;;;;7.05;4.55;;;23.00;99.90;;;;;;9101697;26;20001;-73
2024/04/13 12:03:04;;;;;;;6.60;4.10;;;23.40;99.90;;;;;;9082412;26;20100;-73
2024/04/13 12:07:11;;;;;;;8.02;3.80;;;23.70;99.90;;;;;;9103397;26;20085;-73
2024/04/13 12:11:30;;;;;;;7.07;3.78;;;24.10;99.90;;;;;;9109622;25;20002;-73
2024/04/13 12:15:32;;;;;;;6.30;3.90;;;24.30;99.90;;;;;;9073681;26;20073;-73
2024/04/13 12:19:34;;;;;;;5.93;3.53;;;24.30;99.90;;;;;;9093484;25;20453;-73
2024/04/13 12:23:36;;;;;;;7.85;3.60;;;24.30;99.90;;;;;;9083712;26;20024;-73
2024/04/13 12:27:38;;;;;;;6.93;3.53;;;24.20;99.90;;;;;;9102741;26;20003;-73
2024/04/13 12:31:40;;;;;;;6.82;4.10;;;24.20;99.90;;;;;;9100894;25;20066;-73
2024/04/13 12:35:42;;;;;;;6.22;3.63;;;24.00;99.90;;;;;;9099472;25;20014;-73
2024/04/13 12:39:44;;;;;;;7.65;3.90;;;23.90;99.90;;;;;;9088723;25;20007;-73
2024/04/13 12:43:46;;;;;;;5.97;3.53;;;23.80;99.90;;;;;;9083652;25;20471;-73
2024/04/13 12:47:48;;;;;;;7.70;4.00;;;23.80;99.90;;;;;;9098533;25;20005;-73
2024/04/13 12:51:50;;;;;;;6.45;3.17;;;23.60;99.90;;;;;;9102084;25;20070;-72
2024/04/13 12:55:52;;;;;;;4.97;3.17;;;23.60;99.90;;;;;;9071949;26;20005;-73
2024/04/13 12:59:55;;;;;;;6.13;3.05;;;23.80;99.90;;;;;;9101032;25;20449;-73
2024/04/13 13:03:56;;;;;;;5.75;3.40;;;23.90;99.90;;;;;;9093354;26;20005;-73
2024/04/13 13:07:58;;;;;;;6.00;3.30;;;24.00;99.90;;;;;;9083492;26;20006;-73
2024/04/13 13:12:03;;;;;;;5.82;3.58;;;23.90;99.90;;;;;;9102694;25;20308;-73
2024/04/13 13:16:06;;;;;;;5.47;3.35;;;24.10;99.90;;;;;;9104151;25;20049;-73
2024/04/13 13:20:08;;;;;;;5.78;3.60;;;24.20;99.90;;;;;;9096134;26;19998;-73
2024/04/13 13:24:10;;;;;;;5.75;3.75;;;24.20;99.90;;;;;;9095471;25;20058;-74
2024/04/13 13:28:12;;;;;;;6.88;4.03;;;24.40;99.90;;;;;;9103737;26;20038;-73
2024/04/13 13:32:14;;;;;;;7.03;4.03;;;24.30;99.90;;;;;;9057557;25;20042;-73
2024/04/13 13:36:16;;;;;;;7.45;4.30;;;24.20;99.90;;;;;;9085977;25;20021;-73
2024/04/13 13:40:18;;;;;;;6.78;4.32;;;24.20;99.90;;;;;;9082229;26;20083;-72
2024/04/13 13:44:20;;;;;;;7.40;4.10;;;24.20;99.90;;;;;;9084527;25;20002;-73
2024/04/13 13:48:22;;;;;;;6.35;3.70;;;24.10;99.90;;;;;;9076577;26;20082;-73
2024/04/13 13:52:26;;;;;;;6.13;3.95;;;24.10;99.90;;;;;;9097928;25;20330;-73
2024/04/13 13:56:47;;;;;;;6.53;3.70;;;24.20;99.90;;;;;;9089450;25;20002;-73
2024/04/13 14:00:49;;;;;;;6.88;3.25;;;24.40;99.90;;;;;;9087552;26;20002;-73
2024/04/13 14:04:51;;;;;;;6.45;3.53;;;24.80;99.90;;;;;;9072992;26;20389;-73
2024/04/13 14:08:53;;;;;;;9.23;3.50;;;25.20;99.90;;;;;;9080228;25;20030;-73
2024/04/13 14:12:55;;;;;;;5.35;3.58;;;25.40;99.90;;;;;;9072255;26;20020;-73
2024/04/13 14:16:59;;;;;;;5.75;3.45;;;25.70;99.90;;;;;;9067789;26;20015;-73
2024/04/13 14:21:01;;;;;;;6.30;3.88;;;25.70;99.90;;;;;;9083281;26;20006;-73
2024/04/13 14:25:05;;;;;;;6.63;3.72;;;25.80;99.90;;;;;;9105039;26;20505;-72
2024/04/13 14:29:07;;;;;;;5.72;3.60;;;26.10;99.90;;;;;;9080332;26;21106;-73
2024/04/13 14:33:08;;;;;;;6.07;4.00;;;26.50;99.90;;;;;;9077415;26;20586;-73
2024/04/13 14:37:10;;;;;;;6.40;3.80;;;26.50;99.90;;;;;;9094233;25;20122;-73
2024/04/13 14:41:12;;;;;;;6.63;4.03;;;26.40;99.90;;;;;;9076740;26;20032;-73
2024/04/13 14:45:14;;;;;;;5.70;3.28;;;26.40;99.90;;;;;;9090811;26;20020;-73
2024/04/13 14:49:16;;;;;;;5.78;3.70;;;26.40;99.90;;;;;;9085823;26;20002;-73
2024/04/13 14:53:19;;;;;;;8.60;4.03;;;26.30;99.90;;;;;;9078017;26;20566;-73
2024/04/13 14:57:21;;;;;;;9.38;4.07;;;26.50;99.90;;;;;;9061613;25;20015;-73
2024/04/13 15:01:23;;;;;;;7.32;4.05;;;26.30;99.90;;;;;;9081387;26;20002;-73
2024/04/13 15:05:24;;;;;;;6.00;3.83;;;26.30;99.90;;;;;;9054044;26;20010;-73
2024/04/13 15:09:26;;;;;;;5.72;3.35;;;26.70;99.90;;;;;;9057305;25;20017;-73
2024/04/13 15:13:29;;;;;;;6.97;4.03;;;26.70;99.90;;;;;;9070057;25;20033;-73
2024/04/13 15:17:31;;;;;;;5.68;3.83;;;26.70;99.90;;;;;;9085842;25;20011;-73
2024/04/13 15:21:32;;;;;;;8.05;3.67;;;27.10;99.90;;;;;;9087885;25;20028;-73
2024/04/13 15:25:34;;;;;;;6.65;3.53;;;27.20;99.90;;;;;;9083840;26;20005;-74
2024/04/13 15:29:36;;;;;;;6.20;3.58;;;27.30;99.90;;;;;;9096824;26;20050;-73
2024/04/13 15:33:38;;;;;;;6.85;3.42;;;27.20;99.90;;;;;;9078614;26;20006;-73
2024/04/13 15:37:41;;;;;;;6.38;3.47;;;26.70;99.90;;;;;;9109863;25;20010;-73
2024/04/13 15:41:44;;;;;;;7.70;3.90;;;26.50;99.90;;;;;;9094094;25;20095;-73
2024/04/13 15:45:52;;;;;;;6.75;3.90;;;26.40;99.90;;;;;;9093331;26;20505;-73
2024/04/13 15:49:54;;;;;;;5.70;3.30;;;26.50;99.90;;;;;;9082029;26;20006;-73
2024/04/13 15:53:56;;;;;;;5.88;3.42;;;26.30;99.90;;;;;;9082517;26;20071;-73
2024/04/13 15:58:13;;;;;;;5.47;2.85;;;26.00;99.90;;;;;;9092922;25;21079;-73
2024/04/13 16:02:15;;;;;;;6.45;2.92;;;25.70;99.90;;;;;;9076744;25;20079;-73
2024/04/13 16:06:17;;;;;;;5.32;2.63;;;25.30;99.90;;;;;;9096445;26;20016;-73
2024/04/13 16:10:19;;;;;;;5.53;2.60;;;25.20;99.90;;;;;;9105283;26;20005;-73
2024/04/13 16:14:21;;;;;;;6.20;2.70;;;24.90;99.90;;;;;;9084249;25;20016;-73
2024/04/13 16:18:23;;;;;;;4.60;2.70;;;24.60;99.90;;;;;;9089986;26;20028;-73
2024/04/13 16:22:25;;;;;;;5.40;2.42;;;24.40;99.90;;;;;;9075218;26;20087;-73
2024/04/13 16:26:27;;;;;;;5.68;2.78;;;24.30;99.90;;;;;;9097383;25;20050;-73
2024/04/13 16:30:29;;;;;;;5.35;2.63;;;24.30;99.90;;;;;;9091976;26;20125;-73
2024/04/13 16:34:31;;;;;;;4.75;2.20;;;24.50;99.90;;;;;;9086142;26;20001;-73
2024/04/13 16:38:33;;;;;;;5.20;2.28;;;24.70;99.90;;;;;;9086448;25;20006;-73
2024/04/13 16:42:35;;;;;;;6.28;2.60;;;24.60;99.90;;;;;;9089309;26;20017;-73
2024/04/13 16:46:38;;;;;;;6.38;2.70;;;24.40;99.90;;;;;;9072724;26;20005;-74
2024/04/13 16:50:40;;;;;;;4.78;2.38;;;24.20;99.90;;;;;;9088018;26;20021;-74
2024/04/13 16:54:42;;;;;;;5.20;2.45;;;24.20;99.90;;;;;;9085724;26;20077;-73
2024/04/13 16:58:44;;;;;;;5.30;2.58;;;24.20;99.90;;;;;;9102935;26;20016;-73
2024/04/13 17:02:45;;;;;;;4.57;2.42;;;24.00;99.90;;;;;;9096452;26;20006;-73
2024/04/13 17:06:47;;;;;;;6.63;2.72;;;23.90;99.90;;;;;;9093858;26;20473;-73
2024/04/13 17:10:49;;;;;;;7.47;3.20;;;23.80;99.90;;;;;;9090478;26;20277;-74
2024/04/13 17:14:51;;;;;;;5.68;2.45;;;23.60;99.90;;;;;;9096753;26;20002;-74
2024/04/13 17:18:55;;;;;;;5.15;2.70;;;23.60;99.90;;;;;;9086265;26;20010;-74
2024/04/13 17:22:57;;;;;;;4.57;2.45;;;23.50;99.90;;;;;;9087497;25;20005;-73
2024/04/13 17:26:59;;;;;;;5.20;2.50;;;23.50;99.90;;;;;;9079760;26;20010;-73
2024/04/13 17:31:01;;;;;;;7.57;2.50;;;23.40;99.90;;;;;;9075820;26;20429;-73
2024/04/13 17:35:04;;;;;;;5.45;2.63;;;23.10;99.90;;;;;;9066395;26;20007;-73
2024/04/13 17:39:08;;;;;;;4.50;2.25;;;22.80;99.90;;;;;;9076688;26;20002;-73
2024/04/13 17:43:10;;;;;;;4.55;2.38;;;22.60;99.90;;;;;;9084501;26;20413;-73
2024/04/13 17:47:12;;;;;;;5.82;2.40;;;22.40;99.90;;;;;;9075864;25;19999;-73
2024/04/13 17:51:14;;;;;;;6.00;2.00;;;22.10;99.90;;;;;;9078863;26;20014;-73
2024/04/13 17:55:16;;;;;;;6.90;2.33;;;21.90;99.90;;;;;;9077194;26;20012;-73
2024/04/13 17:59:17;;;;;;;6.18;2.35;;;21.70;99.90;;;;;;9088296;26;20021;-73
2024/04/13 18:03:19;;;;;;;6.15;2.70;;;21.50;99.90;;;;;;9080950;25;20033;-74
2024/04/13 18:07:21;;;;;;;4.18;2.03;;;21.20;99.90;;;;;;9077456;26;20465;-73
2024/04/13 18:11:23;;;;;;;5.10;2.08;;;21.00;99.90;;;;;;9083003;26;20006;-73
2024/04/13 18:15:25;;;;;;;4.90;2.55;;;20.90;99.90;;;;;;9090404;26;20006;-73
2024/04/13 18:19:39;;;;;;;5.07;2.28;;;20.70;99.90;;;;;;9094086;26;20005;-73
2024/04/13 18:23:41;;;;;;;5.55;2.40;;;20.50;99.90;;;;;;9077874;26;20020;-73
2024/04/13 18:27:43;;;;;;;5.90;2.50;;;20.50;99.90;;;;;;9084710;26;20021;-73
2024/04/13 18:31:45;;;;;;;5.35;2.22;;;20.40;99.90;;;;;;9091077;26;20066;-73
2024/04/13 18:35:47;;;;;;;5.03;2.38;;;20.30;99.90;;;;;;9086551;26;20493;-73
2024/04/13 18:39:49;;;;;;;4.43;2.25;;;20.20;99.90;;;;;;9089990;26;20081;-73
2024/04/13 18:43:51;;;;;;;5.30;2.90;;;20.10;99.90;;;;;;9083759;26;20018;-73
2024/04/13 18:47:54;;;;;;;7.22;2.67;;;20.00;99.90;;;;;;9090435;25;20016;-73
2024/04/13 18:51:57;;;;;;;7.00;2.40;;;20.00;99.90;;;;;;9084849;26;20043;-74
2024/04/13 18:55:59;;;;;;;4.72;2.15;;;19.90;99.90;;;;;;9089307;26;20005;-73
2024/04/13 19:00:03;;;;;;;5.22;2.50;;;19.80;99.90;;;;;;9096647;26;20021;-74
2024/04/13 19:04:08;;;;;;;6.75;2.70;;;19.60;99.90;;;;;;9080849;26;20010;-73
2024/04/13 19:08:10;;;;;;;5.65;2.28;;;19.60;99.90;;;;;;9077772;26;20465;-73
2024/04/13 19:12:14;;;;;;;5.32;2.63;;;19.40;99.90;;;;;;9095642;26;20029;-73
2024/04/13 19:16:19;;;;;;;4.88;2.50;;;19.30;99.90;;;;;;9072869;26;20055;-74
2024/04/13 19:20:21;;;;;;;5.05;2.45;;;19.20;99.90;;;;;;9095386;26;20082;-73
2024/04/13 19:24:23;;;;;;;4.70;2.70;;;19.20;99.90;;;;;;9090058;25;20055;-73
2024/04/13 19:28:27;;;;;;;5.35;2.58;;;19.10;99.90;;;;;;9096751;26;20469;-74
2024/04/13 19:32:29;;;;;;;5.75;3.15;;;19.00;99.90;;;;;;9092395;26;20024;-73
2024/04/13 19:36:31;;;;;;;6.75;2.97;;;18.90;99.90;;;;;;9097690;25;20490;-73
2024/04/13 19:40:33;;;;;;;4.72;2.53;;;18.80;99.90;;;;;;9087211;26;20013;-72
2024/04/13 19:44:35;;;;;;;7.00;2.90;;;18.70;99.90;;;;;;9086505;26;20006;-73
2024/04/13 19:48:37;;;;;;;5.13;2.42;;;18.60;99.90;;;;;;9085847;25;20001;-73
2024/04/13 19:52:39;;;;;;;4.05;2.10;;;18.50;99.90;;;;;;9072980;26;20007;-73
2024/04/13 19:56:41;;;;;;;5.43;2.00;;;18.50;99.90;;;;;;9079945;26;20016;-73
2024/04/13 20:00:43;;;;;;;3.78;1.60;;;18.40;99.90;;;;;;9093331;25;20025;-73
2024/04/13 20:04:45;;;;;;;4.28;1.55;;;18.30;99.90;;;;;;9081199;26;20046;-73
2024/04/13 20:08:47;;;;;;;2.25;1.15;;;18.30;99.90;;;;;;9079314;26;20017;-73
2024/04/13 20:12:49;;;;;;;3.90;1.40;;;18.20;99.90;;;;;;9068833;26;20035;-73
2024/04/13 20:21:12;;;;;;;4.45;1.60;;;18.00;99.90;;;;;;9063594;26;20002;-73
2024/04/13 20:25:14;;;;;;;5.22;1.40;;;17.90;99.90;;;;;;9062915;26;20006;-73
2024/04/13 20:29:15;;;;;;;6.18;1.60;;;17.90;99.90;;;;;;9066709;26;20043;-73
2024/04/13 20:33:17;;;;;;;7.93;1.63;;;17.80;99.90;;;;;;9065714;26;20006;-74
2024/04/13 20:37:19;;;;;;;3.63;1.50;;;17.70;99.90;;;;;;9062432;26;20114;-73
2024/04/13 20:41:21;;;;;;;6.40;2.22;;;17.50;99.90;;;;;;9064043;26;20517;-73
2024/04/13 20:45:23;;;;;;;3.25;1.48;;;17.50;99.90;;;;;;9060065;26;20103;-73
2024/04/13 20:49:25;;;;;;;4.38;1.80;;;17.40;99.90;;;;;;9065307;26;20635;-73
2024/04/13 20:53:27;;;;;;;5.70;1.70;;;17.40;99.90;;;;;;9061222;26;20460;-73
2024/04/13 20:57:29;;;;;;;4.18;1.70;;;17.20;99.90;;;;;;9061800;26;20002;-73
2024/04/13 21:01:31;;;;;;;4.05;1.80;;;17.20;99.90;;;;;;9064687;26;20384;-73
2024/04/13 21:05:33;;;;;;;5.25;2.13;;;17.00;99.90;;;;;;9037948;26;20429;-73
2024/04/13 21:09:36;;;;;;;4.78;1.60;;;17.00;99.90;;;;;;9030168;26;20338;-74
2024/04/13 21:13:38;;;;;;;5.22;1.95;;;16.90;99.90;;;;;;9052505;26;20014;-73
2024/04/13 21:17:40;;;;;;;4.10;1.70;;;16.80;99.90;;;;;;9023363;26;20043;-73
2024/04/13 21:21:42;;;;;;;4.65;1.63;;;16.70;99.90;;;;;;9043850;26;20339;-73
2024/04/13 21:25:47;;;;;;;4.45;1.63;;;16.60;99.90;;;;;;9046231;26;20014;-73
2024/04/13 21:29:49;;;;;;;3.67;1.58;;;16.50;99.90;;;;;;9037069;26;20369;-73
2024/04/13 21:33:51;;;;;;;6.10;1.85;;;16.40;99.90;;;;;;9043335;26;20007;-73
2024/04/13 21:37:57;;;;;;;4.53;1.58;;;16.40;99.90;;;;;;9040587;26;20021;-73
2024/04/13 21:42:00;;;;;;;4.55;1.45;;;16.30;99.90;;;;;;9080991;25;20353;-73